createdAt,value
2023-03-19T00:00:45.366Z,26.53
2023-03-19T00:03:48.509Z,30.53
2023-03-19T00:06:53.396Z,25.67
2023-03-19T00:09:56.370Z,29.83
2023-03-19T00:12:59.339Z,28.07
2023-03-19T00:16:02.339Z,26.73
2023-03-19T00:19:05.655Z,25.37
2023-03-19T00:22:10.153Z,29.50
2023-03-19T00:25:13.697Z,28.43
2023-03-19T00:28:16.990Z,23.67
2023-03-19T00:31:19.938Z,26.43
2023-03-19T00:34:23.026Z,29.40
2023-03-19T00:37:27.372Z,23.80
2023-03-19T00:40:31.950Z,23.60
2023-03-19T00:43:35.424Z,25.30
2023-03-19T00:46:38.450Z,28.03
2023-03-19T00:49:41.405Z,21.87
2023-03-19T00:52:45.800Z,24.67
2023-03-19T00:55:48.893Z,22.47
2023-03-19T00:58:52.452Z,21.87
2023-03-19T01:01:55.784Z,20.17
2023-03-19T01:04:58.916Z,21.40
2023-03-19T01:08:03.592Z,19.67
2023-03-19T01:11:09.519Z,21.50
2023-03-19T01:14:12.827Z,20.30
2023-03-19T01:17:15.875Z,24.03
2023-03-19T01:20:24.164Z,24.63
2023-03-19T01:23:29.682Z,21.93
2023-03-19T01:26:32.773Z,25.80
2023-03-19T01:29:49.141Z,21.93
2023-03-19T01:33:23.709Z,21.90
2023-03-19T01:36:36.645Z,24.73
2023-03-19T01:39:43.523Z,23.40
2023-03-19T01:42:57.283Z,22.90
2023-03-19T01:46:34.275Z,22.60
2023-03-19T01:49:58.305Z,22.30
2023-03-19T01:53:01.788Z,20.60
2023-03-19T01:56:30.608Z,21.30
2023-03-19T01:59:44.136Z,17.77
2023-03-19T02:03:03.027Z,24.07
2023-03-19T02:06:28.289Z,22.43
2023-03-19T02:09:33.079Z,21.60
2023-03-19T02:12:38.067Z,22.10
2023-03-19T02:15:42.063Z,23.87
2023-03-19T02:18:45.638Z,18.53
2023-03-19T02:21:52.369Z,18.23
2023-03-19T02:25:00.894Z,23.37
2023-03-19T02:28:05.844Z,24.37
2023-03-19T02:31:10.017Z,22.30
2023-03-19T02:34:36.808Z,24.57
2023-03-19T02:37:40.003Z,20.33
2023-03-19T02:40:49.165Z,21.43
2023-03-19T02:43:54.858Z,18.73
2023-03-19T02:46:57.934Z,21.23
2023-03-19T02:50:01.051Z,19.83
2023-03-19T02:53:04.042Z,19.80
2023-03-19T02:56:08.008Z,19.53
2023-03-19T02:59:13.262Z,25.37
2023-03-19T03:02:16.256Z,16.97
2023-03-19T03:05:19.346Z,19.47
2023-03-19T03:08:23.608Z,22.73
2023-03-19T03:11:27.065Z,19.17
2023-03-19T03:14:31.708Z,19.43
2023-03-19T03:17:35.056Z,20.03
2023-03-19T03:20:38.328Z,23.07
2023-03-19T03:23:41.443Z,19.23
2023-03-19T03:26:44.912Z,20.07
2023-03-19T03:29:49.538Z,18.87
2023-03-19T03:32:52.572Z,17.90
2023-03-19T03:35:56.678Z,18.43
2023-03-19T03:38:59.758Z,22.47
2023-03-19T03:42:02.993Z,19.63
2023-03-19T03:45:10.904Z,21.50
2023-03-19T03:48:14.088Z,24.00
2023-03-19T03:51:17.541Z,22.23
2023-03-19T03:54:21.397Z,19.33
2023-03-19T03:57:24.444Z,20.60
2023-03-19T04:00:28.914Z,22.97
2023-03-19T04:03:31.966Z,21.20
2023-03-19T04:06:35.866Z,20.33
2023-03-19T04:09:52.523Z,18.93
2023-03-19T04:12:55.758Z,20.30
2023-03-19T04:16:00.760Z,24.83
2023-03-19T04:19:05.461Z,21.00
2023-03-19T04:22:08.853Z,23.07
2023-03-19T04:25:12.119Z,19.23
2023-03-19T04:28:16.273Z,21.47
2023-03-19T04:31:20.675Z,22.40
2023-03-19T04:34:25.034Z,21.90
2023-03-19T04:37:28.149Z,18.40
2023-03-19T04:40:31.792Z,19.47
2023-03-19T04:43:35.049Z,18.20
2023-03-19T04:46:41.852Z,17.30
2023-03-19T04:49:44.846Z,19.90
2023-03-19T04:52:48.196Z,19.10
2023-03-19T04:55:52.175Z,26.20
2023-03-19T04:58:56.873Z,17.33
2023-03-19T05:02:01.623Z,20.53
2023-03-19T05:05:07.264Z,18.33
2023-03-19T05:08:10.662Z,18.43
2023-03-19T05:11:14.004Z,22.70
2023-03-19T05:14:32.550Z,20.90
2023-03-19T05:17:45.373Z,21.23
2023-03-19T05:20:56.232Z,20.87
2023-03-19T05:24:01.039Z,22.43
2023-03-19T05:27:07.244Z,22.47
2023-03-19T05:30:28.818Z,29.63
2023-03-19T05:33:42.999Z,26.07
2023-03-19T05:36:46.465Z,24.57
2023-03-19T05:39:53.778Z,24.27
2023-03-19T05:42:56.934Z,26.40
2023-03-19T05:46:03.629Z,30.63
2023-03-19T05:49:12.179Z,27.97
2023-03-19T05:52:15.326Z,29.00
2023-03-19T05:55:19.562Z,27.40
2023-03-19T05:58:28.622Z,29.50
2023-03-19T06:01:31.698Z,28.60
2023-03-19T06:04:37.680Z,25.70
2023-03-19T06:07:40.855Z,24.30
2023-03-19T06:10:50.634Z,26.20
2023-03-19T06:13:53.695Z,27.23
2023-03-19T06:16:57.720Z,27.13
2023-03-19T06:20:02.097Z,25.63
2023-03-19T06:23:05.053Z,26.73
2023-03-19T06:26:08.172Z,24.53
2023-03-19T06:29:19.643Z,28.80
2023-03-19T06:32:25.685Z,25.63
2023-03-19T06:35:31.242Z,22.97
2023-03-19T06:38:35.603Z,21.10
2023-03-19T06:41:38.756Z,24.87
2023-03-19T06:44:52.328Z,24.23
2023-03-19T06:48:01.416Z,21.60
2023-03-19T06:51:08.006Z,25.50
2023-03-19T06:54:11.068Z,21.47
2023-03-19T06:57:14.038Z,21.80
2023-03-19T07:00:20.756Z,24.13
2023-03-19T07:03:24.514Z,22.97
2023-03-19T07:06:30.062Z,20.80
2023-03-19T07:09:33.224Z,21.43
2023-03-19T07:12:36.347Z,24.60
2023-03-19T07:15:42.190Z,24.03
2023-03-19T07:18:45.166Z,21.37
2023-03-19T07:21:52.461Z,22.27
2023-03-19T07:24:55.423Z,21.63
2023-03-19T07:27:58.479Z,24.70
2023-03-19T07:31:01.455Z,23.83
2023-03-19T07:34:04.860Z,27.03
2023-03-19T07:37:09.434Z,24.90
2023-03-19T07:40:13.099Z,23.50
2023-03-19T07:43:16.324Z,25.20
2023-03-19T07:46:19.623Z,25.60
2023-03-19T07:49:23.919Z,25.90
2023-03-19T07:52:28.806Z,23.07
2023-03-19T07:55:31.889Z,23.57
2023-03-19T07:58:35.449Z,23.10
2023-03-19T08:01:38.523Z,30.33
2023-03-19T08:04:42.296Z,23.03
2023-03-19T08:07:55.161Z,26.57
2023-03-19T08:11:26.517Z,18.50
2023-03-19T08:14:30.445Z,24.07
2023-03-19T08:17:38.137Z,22.47
2023-03-19T08:20:41.513Z,23.10
2023-03-19T08:23:45.832Z,25.20
2023-03-19T08:26:48.769Z,20.67
2023-03-19T08:29:51.712Z,19.87
2023-03-19T08:32:54.786Z,20.53
2023-03-19T08:36:07.382Z,18.73
2023-03-19T08:39:14.381Z,15.90
2023-03-19T08:42:17.384Z,16.83
2023-03-19T08:45:25.058Z,16.40
2023-03-19T08:48:28.550Z,16.17
2023-03-19T08:51:31.982Z,15.10
2023-03-19T08:54:37.084Z,23.10
2023-03-19T08:57:40.144Z,20.73
2023-03-19T09:00:43.161Z,21.30
2023-03-19T09:03:46.163Z,22.87
2023-03-19T09:06:51.458Z,19.83
2023-03-19T09:09:58.730Z,21.90
2023-03-19T09:13:02.113Z,21.97
2023-03-19T09:16:06.525Z,19.43
2023-03-19T09:19:10.327Z,24.87
2023-03-19T09:22:13.324Z,24.83
2023-03-19T09:25:17.815Z,23.50
2023-03-19T09:28:21.210Z,24.67
2023-03-19T09:31:24.295Z,20.87
2023-03-19T09:34:27.457Z,24.47
2023-03-19T09:37:30.440Z,23.23
2023-03-19T09:40:40.459Z,25.03
2023-03-19T09:44:02.329Z,20.40
2023-03-19T09:47:25.802Z,23.17
2023-03-19T09:50:29.785Z,23.00
2023-03-19T09:53:43.400Z,21.60
2023-03-19T09:56:47.814Z,22.23
2023-03-19T09:59:52.255Z,21.03
2023-03-19T10:03:18.596Z,24.47
2023-03-19T10:06:35.531Z,21.83
2023-03-19T10:09:52.899Z,24.03
2023-03-19T10:13:10.453Z,24.97
2023-03-19T10:16:18.095Z,27.97
2023-03-19T10:19:31.739Z,24.20
2023-03-19T10:22:45.407Z,22.83
2023-03-19T10:25:49.152Z,22.63
2023-03-19T10:29:05.195Z,23.83
2023-03-19T10:32:19.281Z,24.57
2023-03-19T10:35:29.455Z,23.07
2023-03-19T10:38:33.566Z,27.00
2023-03-19T10:41:48.589Z,24.33
2023-03-19T10:45:03.030Z,23.50
2023-03-19T10:48:07.588Z,22.77
2023-03-19T10:51:14.974Z,21.57
2023-03-19T10:54:25.221Z,20.57
2023-03-19T10:57:31.714Z,21.23
2023-03-19T11:00:36.443Z,18.90
2023-03-19T11:03:43.990Z,19.77
2023-03-19T11:06:51.017Z,18.50
2023-03-19T11:09:57.872Z,17.27
2023-03-19T11:13:04.940Z,17.37
2023-03-19T11:16:10.690Z,18.57
2023-03-19T11:19:21.452Z,17.33
2023-03-19T11:22:27.009Z,20.17
2023-03-19T11:25:36.803Z,15.87
2023-03-19T11:28:44.999Z,14.97
2023-03-19T11:31:56.798Z,16.23
2023-03-19T11:35:02.499Z,18.20
2023-03-19T11:38:08.202Z,16.00
2023-03-19T11:41:22.948Z,16.33
2023-03-19T11:44:32.214Z,15.03
2023-03-19T11:47:47.458Z,13.70
2023-03-19T11:50:55.477Z,12.90
2023-03-19T11:54:07.737Z,16.13
2023-03-19T11:57:16.298Z,13.60
2023-03-19T12:00:31.321Z,13.53
2023-03-19T12:04:12.318Z,14.47
2023-03-19T12:07:25.879Z,12.83
2023-03-19T12:10:46.350Z,12.20
2023-03-19T12:14:04.409Z,15.63
2023-03-19T12:17:34.183Z,14.67
2023-03-19T12:20:55.950Z,12.20
2023-03-19T12:24:09.156Z,12.57
2023-03-19T12:27:27.409Z,12.03
2023-03-19T12:30:37.458Z,12.60
2023-03-19T12:33:49.255Z,15.30
2023-03-19T12:36:59.612Z,11.63
2023-03-19T12:44:27.712Z,11.67
2023-03-19T12:47:39.239Z,14.10
2023-03-19T12:50:47.178Z,14.07
2023-03-19T12:53:57.689Z,14.03
2023-03-19T12:57:05.758Z,13.57
2023-03-19T13:00:20.268Z,14.00
2023-03-19T13:03:32.125Z,13.27
2023-03-19T13:06:38.557Z,13.10
2023-03-19T13:09:49.783Z,12.97
2023-03-19T13:12:56.078Z,12.82
2023-03-19T13:16:07.605Z,11.63
2023-03-19T13:19:22.906Z,14.48
2023-03-19T13:22:28.717Z,13.57
2023-03-19T13:25:38.302Z,15.98
2023-03-19T13:29:00.244Z,12.75
2023-03-19T13:32:07.518Z,15.68
2023-03-19T13:35:26.663Z,11.77
2023-03-19T13:38:39.482Z,12.10
2023-03-19T13:42:25.336Z,13.85
2023-03-19T13:45:36.772Z,13.85
2023-03-19T13:48:50.983Z,11.02
2023-03-19T13:51:57.289Z,10.70
2023-03-19T13:55:32.847Z,10.48
2023-03-19T13:58:52.111Z,15.35
2023-03-19T14:01:55.681Z,8.98
2023-03-19T14:05:02.876Z,10.00
2023-03-19T14:08:22.064Z,10.95
2023-03-19T14:11:26.592Z,11.25
2023-03-19T14:14:31.076Z,8.70
2023-03-19T14:17:37.065Z,10.88
2023-03-19T14:20:48.434Z,7.93
2023-03-19T14:23:57.747Z,10.65
2023-03-19T14:27:05.627Z,9.15
2023-03-19T14:30:22.118Z,9.07
2023-03-19T14:33:39.408Z,8.52
2023-03-19T14:36:50.919Z,9.65
2023-03-19T14:40:01.634Z,14.68
2023-03-19T14:43:14.853Z,10.23
2023-03-19T14:46:30.802Z,8.52
2023-03-19T14:50:17.456Z,8.02
2023-03-19T14:53:26.733Z,11.18
2023-03-19T14:56:35.870Z,9.07
2023-03-19T14:59:40.615Z,7.60
2023-03-19T15:02:48.153Z,10.98
2023-03-19T15:05:57.747Z,8.80
2023-03-19T15:09:02.440Z,9.88
2023-03-19T15:12:33.892Z,7.78
2023-03-19T15:16:12.865Z,8.48
2023-03-19T15:19:24.879Z,9.55
2023-03-19T15:22:31.751Z,12.00
2023-03-19T15:25:35.006Z,9.68
2023-03-19T15:28:49.517Z,11.32
2023-03-19T15:32:04.463Z,9.75
2023-03-19T15:35:10.879Z,11.27
2023-03-19T15:38:18.106Z,10.50
2023-03-19T15:41:23.772Z,10.85
2023-03-19T15:44:33.189Z,10.60
2023-03-19T15:47:41.350Z,9.82
2023-03-19T15:50:52.566Z,10.15
2023-03-19T15:53:59.167Z,9.07
2023-03-19T15:57:02.179Z,9.73
2023-03-19T16:00:09.874Z,8.40
2023-03-19T16:03:20.437Z,10.30
2023-03-19T16:06:28.895Z,12.43
2023-03-19T16:09:35.139Z,14.85
2023-03-19T16:12:41.037Z,13.38
2023-03-19T16:15:46.179Z,13.52
2023-03-19T16:18:52.229Z,10.10
2023-03-19T16:21:56.832Z,12.60
2023-03-19T16:25:02.403Z,12.00
2023-03-19T16:28:07.368Z,10.75
2023-03-19T16:31:23.133Z,10.82
2023-03-19T16:34:37.000Z,13.85
2023-03-19T16:37:45.193Z,10.23
2023-03-19T16:40:49.408Z,10.93
2023-03-19T16:43:54.475Z,11.20
2023-03-19T16:46:57.586Z,13.57
2023-03-19T16:50:00.711Z,12.50
2023-03-19T16:53:11.013Z,13.32
2023-03-19T16:56:16.165Z,11.60
2023-03-19T16:59:27.506Z,12.82
2023-03-19T17:02:35.631Z,11.50
2023-03-19T17:05:39.163Z,11.27
2023-03-19T17:08:44.067Z,12.25
2023-03-19T17:11:47.086Z,16.03
2023-03-19T17:14:52.994Z,12.32
2023-03-19T17:17:57.224Z,15.40
2023-03-19T17:21:04.654Z,13.47
2023-03-19T17:24:23.561Z,14.35
2023-03-19T17:27:27.814Z,15.95
2023-03-19T17:30:30.981Z,15.23
2023-03-19T17:33:38.860Z,12.40
2023-03-19T17:36:43.207Z,14.40
2023-03-19T17:39:47.742Z,15.83
2023-03-19T17:42:51.791Z,14.27
2023-03-19T17:45:56.988Z,16.10
2023-03-19T17:49:01.419Z,19.57
2023-03-19T17:52:04.901Z,17.70
2023-03-19T17:55:17.334Z,16.53
2023-03-19T17:58:22.897Z,15.57
2023-03-19T18:01:28.617Z,18.63
2023-03-19T18:04:31.679Z,16.20
2023-03-19T18:07:34.697Z,18.97
2023-03-19T18:10:39.002Z,15.47
2023-03-19T18:13:42.930Z,14.60
2023-03-19T18:16:47.312Z,20.27
2023-03-19T18:19:52.244Z,18.63
2023-03-19T18:22:55.973Z,16.37
2023-03-19T18:26:00.386Z,18.40
2023-03-19T18:29:04.217Z,20.73
2023-03-19T18:32:13.910Z,20.10
2023-03-19T18:35:18.221Z,20.73
2023-03-19T18:38:26.544Z,22.60
2023-03-19T18:41:34.623Z,26.53
2023-03-19T18:44:41.440Z,21.30
2023-03-19T18:47:46.416Z,21.57
2023-03-19T18:50:49.721Z,20.50
2023-03-19T18:53:52.680Z,19.80
2023-03-19T18:56:58.448Z,22.37
2023-03-19T19:00:01.652Z,21.47
2023-03-19T19:03:06.493Z,18.30
2023-03-19T19:06:09.998Z,21.30
2023-03-19T19:09:13.293Z,25.90
2023-03-19T19:12:19.100Z,23.60
2023-03-19T19:15:26.193Z,21.53
2023-03-19T19:18:32.782Z,23.90
2023-03-19T19:21:35.863Z,26.33
2023-03-19T19:24:38.825Z,25.37
2023-03-19T19:27:44.596Z,21.20
2023-03-19T19:30:49.294Z,24.17
2023-03-19T19:33:53.346Z,24.20
2023-03-19T19:36:58.607Z,21.67
2023-03-19T19:40:01.720Z,24.83
2023-03-19T19:43:06.066Z,21.30
2023-03-19T19:46:09.182Z,18.03
2023-03-19T19:49:14.824Z,20.73
2023-03-19T19:52:20.260Z,21.07
2023-03-19T19:55:25.328Z,19.50
2023-03-19T19:58:32.860Z,20.87
2023-03-19T20:01:36.094Z,18.57
2023-03-19T20:04:39.481Z,18.30
2023-03-19T20:07:42.495Z,22.17
2023-03-19T20:10:49.111Z,22.33
2023-03-19T20:13:55.854Z,20.90
2023-03-19T20:16:59.524Z,21.87
2023-03-19T20:20:02.849Z,18.93
2023-03-19T20:23:05.786Z,21.97
2023-03-19T20:26:14.763Z,23.93
2023-03-19T20:29:19.029Z,24.40
2023-03-19T20:32:28.572Z,25.37
2023-03-19T20:35:34.457Z,24.37
2023-03-19T20:38:37.697Z,21.07
2023-03-19T20:41:40.983Z,26.87
2023-03-19T20:44:46.035Z,23.37
2023-03-19T20:47:52.200Z,20.60
2023-03-19T20:50:55.720Z,19.23
2023-03-19T20:53:58.805Z,20.70
2023-03-19T20:57:02.441Z,21.83
2023-03-19T21:00:24.105Z,19.07
2023-03-19T21:03:30.479Z,19.53
2023-03-19T21:06:46.290Z,18.87
2023-03-19T21:09:56.250Z,20.33
2023-03-19T21:13:00.615Z,18.13
2023-03-19T21:16:05.311Z,17.53
2023-03-19T21:19:08.254Z,15.63
2023-03-19T21:22:16.822Z,16.33
2023-03-19T21:25:24.663Z,14.50
2023-03-19T21:28:31.017Z,13.87
2023-03-19T21:31:36.001Z,16.47
2023-03-19T21:34:39.012Z,15.10
2023-03-19T21:37:43.823Z,15.40
2023-03-19T21:40:47.649Z,14.33
2023-03-19T21:43:56.805Z,15.50
2023-03-19T21:47:02.771Z,13.63
2023-03-19T21:50:07.198Z,13.93
2023-03-19T21:53:11.014Z,10.73
2023-03-19T21:56:23.689Z,13.83
2023-03-19T21:59:31.666Z,11.83
2023-03-19T22:02:44.382Z,11.70
2023-03-19T22:05:49.852Z,10.47
2023-03-19T22:08:54.546Z,12.53
2023-03-19T22:11:57.558Z,12.23
2023-03-19T22:15:01.149Z,13.30
2023-03-19T22:18:07.958Z,14.77
2023-03-19T22:21:15.290Z,9.70
2023-03-19T22:24:18.661Z,8.53
2023-03-19T22:27:21.649Z,8.80
2023-03-19T22:30:33.978Z,11.00
2023-03-19T22:33:39.367Z,8.23
2023-03-19T22:36:42.455Z,8.50
2023-03-19T22:39:45.413Z,7.03
2023-03-19T22:42:49.831Z,7.33
2023-03-19T22:45:59.279Z,7.57
2023-03-19T22:49:09.998Z,9.27
2023-03-19T22:52:13.796Z,7.63
2023-03-19T22:55:17.513Z,6.97
2023-03-19T22:58:20.897Z,7.13
2023-03-19T23:01:36.319Z,7.90
2023-03-19T23:04:41.654Z,9.10
2023-03-19T23:07:44.667Z,7.47
2023-03-19T23:10:48.254Z,7.87
2023-03-19T23:13:51.932Z,8.07
2023-03-19T23:20:03.223Z,8.77
2023-03-19T23:23:07.583Z,8.70
2023-03-19T23:26:26.344Z,8.93
2023-03-19T23:29:34.487Z,16.03
2023-03-19T23:32:37.597Z,12.30
2023-03-19T23:35:43.669Z,11.90
2023-03-19T23:38:47.590Z,15.37
2023-03-19T23:41:55.616Z,12.67
2023-03-19T23:45:05.815Z,9.60
2023-03-19T23:48:15.898Z,8.57
2023-03-19T23:51:20.417Z,10.50
2023-03-19T23:54:30.438Z,8.97
2023-03-19T23:57:34.196Z,9.83
